Baldwin, Arkansas
Current Conditions -  °F | °C
As of 2:53 AM on Wednesday 26 Nov 2014 (Local Time) from KFYV Reporting Station
Clear Clear  
Wind Chill: 25°   Ceiling: Unl
Heat Index: 25°   Visibility: 10mi
Dew Point: 24°   Wind: 0mph
Humidity: 96%   Direction: NA
Pressure: 30.02"   Gusts: NA
Location:  35.9902°N, 94.083°W
Report Text: KFYV 260853Z AUTO 00000KT 10SM CLR M04/M04 A3002 RMK AO2 SLP172 T10391044 57024
Loading
Personal Weather Stations






























Interactive Weather Map New forecast layout! Learn more

10-Day Weather Forecast

Advertisements
Track Severe Weather on mobile